Time;durP1;ratioP1;P1;durP2;ratioP2;P2;SDS_P1;SDS_P2;PMS_P1;PMS_P2;Temp;Humidity;BMP_temperature;BMP_pressure;BME280_temperature;BME280_humidity;BME280_pressure;Samples;Min_cycle;Max_cycle;Signal;HPM_P1;HPM_P2
2022/10/13 00:02:06;;;;;;;;;;;;;;;13.01;66.79;95912.78;5050431;28;20014;-69
2022/10/13 00:04:31;;;;;;;;;;;;;;;12.99;66.90;95909.63;5051538;28;20009;-70
2022/10/13 00:06:57;;;;;;;;;;;;;;;12.97;66.67;95907.25;5049650;28;20014;-70
2022/10/13 00:09:22;;;;;;;;;;;;;;;12.96;66.63;95908.34;5051104;28;20017;-70
2022/10/13 00:11:47;;;;;;;;;;;;;;;12.94;66.76;95899.81;5050317;28;20014;-69
2022/10/13 00:14:12;;;;;;;;;;;;;;;12.93;66.89;95900.91;5052335;28;20012;-70
2022/10/13 00:16:38;;;;;;;;;;;;;;;12.91;66.72;95900.44;5048696;28;20545;-69
2022/10/13 00:19:03;;;;;;;;;;;;;;;12.91;66.88;95902.31;5051298;28;20017;-69
2022/10/13 00:21:29;;;;;;;;;;;;;;;12.90;66.80;95906.09;5050827;28;20023;-70
2022/10/13 00:23:54;;;;;;;;;;;;;;;12.87;66.71;95899.47;5050934;28;20017;-69
2022/10/13 00:26:20;;;;;;;;;;;;;;;12.87;66.69;95899.47;5050437;28;20013;-69
2022/10/13 00:28:46;;;;;;;;;;;;;;;12.87;66.89;95896.78;5050505;28;20124;-70
2022/10/13 00:31:22;;;;;;;;;;;;;;;12.85;66.87;95898.97;5042359;28;20545;-69
2022/10/13 00:33:48;;;;;;;;;;;;;;;12.83;66.94;95905.69;5030953;28;20013;-70
2022/10/13 00:36:13;;;;;;;;;;;;;;;12.82;66.75;95901.44;5047147;28;20020;-70
2022/10/13 00:38:39;;;;;;;;;;;;;;;12.80;66.89;95911.66;5050409;28;20017;-68
2022/10/13 00:41:04;;;;;;;;;;;;;;;12.77;66.70;95909.56;5048730;28;20021;-70
2022/10/13 00:43:53;;;;;;;;;;;;;;;12.73;66.57;95906.69;5050676;28;20036;-69
2022/10/13 00:46:19;;;;;;;;;;;;;;;12.72;66.56;95899.78;5049687;28;20143;-69
2022/10/13 00:48:46;;;;;;;;;;;;;;;12.70;66.66;95900.09;5050778;28;20010;-70
2022/10/13 00:51:12;;;;;;;;;;;;;;;12.69;66.49;95900.34;5047638;28;20014;-70
2022/10/13 00:53:38;;;;;;;;;;;;;;;12.69;66.44;95903.03;5046530;28;20184;-70
2022/10/13 00:56:04;;;;;;;;;;;;;;;12.68;66.66;95904.13;5051556;28;20527;-70
2022/10/13 00:58:31;;;;;;;;;;;;;;;12.68;66.55;95893.44;5050033;28;20115;-70
2022/10/13 01:00:57;;;;;;;;;;;;;;;12.67;66.87;95894.53;5047595;28;20014;-70
2022/10/13 01:03:22;;;;;;;;;;;;;;;12.66;66.68;95892.97;5049325;28;20009;-70
2022/10/13 01:05:49;;;;;;;;;;;;;;;12.64;66.47;95892.44;5049024;28;20108;-70
2022/10/13 01:08:15;;;;;;;;;;;;;;;12.64;66.85;95892.44;5050070;28;20013;-70
2022/10/13 01:10:43;;;;;;;;;;;;;;;12.64;66.92;95898.59;5049423;28;20009;-70
2022/10/13 01:13:14;;;;;;;;;;;;;;;12.65;66.57;95894.06;5049017;28;20013;-70
2022/10/13 01:15:43;;;;;;;;;;;;;;;12.64;66.72;95895.13;5046339;28;20059;-71
2022/10/13 01:18:43;;;;;;;;;;;;;;;12.61;66.61;95887.72;5049203;28;20017;-70
2022/10/13 01:21:20;;;;;;;;;;;;;;;12.57;66.67;95897.41;4991664;28;20116;-70
2022/10/13 01:24:05;;;;;;;;;;;;;;;12.56;66.76;95901.97;5041341;28;20018;-70
2022/10/13 01:26:41;;;;;;;;;;;;;;;12.53;66.47;95899.09;5050583;28;20466;-70
2022/10/13 01:29:09;;;;;;;;;;;;;;;12.49;66.52;95896.25;5049723;28;20107;-70
2022/10/13 01:31:40;;;;;;;;;;;;;;;12.45;66.65;95903.25;5046658;28;20667;-70
2022/10/13 01:34:29;;;;;;;;;;;;;;;12.39;66.45;95899.09;5049551;28;20009;-70
2022/10/13 01:37:00;;;;;;;;;;;;;;;12.19;67.75;95893.06;5043778;28;20013;-70
2022/10/13 01:39:40;;;;;;;;;;;;;;;11.76;68.49;95895.13;5048240;28;20056;-70
2022/10/13 01:42:12;;;;;;;;;;;;;;;11.78;68.68;95900.97;5048437;28;20021;-70
2022/10/13 01:44:39;;;;;;;;;;;;;;;11.71;68.67;95905.88;5048448;28;20009;-70
2022/10/13 01:47:06;;;;;;;;;;;;;;;11.66;69.12;95901.41;5046684;28;20127;-70
2022/10/13 01:49:33;;;;;;;;;;;;;;;11.69;68.68;95900.06;5049410;28;20022;-70
2022/10/13 01:52:04;;;;;;;;;;;;;;;11.77;68.48;95899.38;5049434;28;20019;-70
2022/10/13 01:54:30;;;;;;;;;;;;;;;11.59;68.02;95898.34;5050367;28;20055;-70
2022/10/13 01:56:55;;;;;;;;;;;;;;;11.53;68.01;95904.03;5048030;28;20048;-70
2022/10/13 01:59:22;;;;;;;;;;;;;;;11.17;69.85;95904.59;5048840;28;20535;-70
2022/10/13 02:01:48;;;;;;;;;;;;;;;11.52;68.45;95899.81;5048361;28;20021;-71
2022/10/13 02:04:16;;;;;;;;;;;;;;;11.32;69.24;95899.03;5048957;28;20390;-70
2022/10/13 02:06:50;;;;;;;;;;;;;;;11.34;69.58;95894.19;5049088;28;20009;-70
2022/10/13 02:09:16;;;;;;;;;;;;;;;11.25;69.86;95905.78;5048432;28;20035;-70
2022/10/13 02:11:46;;;;;;;;;;;;;;;11.54;69.16;95894.97;5048270;28;20498;-69
2022/10/13 02:14:15;;;;;;;;;;;;;;;11.53;68.88;95898.72;5049351;28;20017;-70
2022/10/13 02:16:42;;;;;;;;;;;;;;;11.64;68.91;95902.78;5048037;28;20014;-70
2022/10/13 02:19:08;;;;;;;;;;;;;;;11.52;68.35;95913.91;5048242;28;20128;-70
2022/10/13 02:21:34;;;;;;;;;;;;;;;11.47;68.86;95913.22;5046906;28;20378;-70
2022/10/13 02:24:00;;;;;;;;;;;;;;;10.97;71.19;95915.50;5048883;28;20009;-70
2022/10/13 02:26:25;;;;;;;;;;;;;;;11.21;70.58;95913.59;5047824;28;20016;-70
2022/10/13 02:28:50;;;;;;;;;;;;;;;11.46;70.48;95907.06;5048349;28;20230;-70
2022/10/13 02:31:17;;;;;;;;;;;;;;;11.47;71.12;95907.88;5047563;28;20312;-70
2022/10/13 02:33:42;;;;;;;;;;;;;;;11.92;70.72;95903.66;5034903;28;20121;-71
2022/10/13 02:36:08;;;;;;;;;;;;;;;12.21;69.94;95901.56;5034384;28;20863;-70
2022/10/13 02:38:33;;;;;;;;;;;;;;;12.48;69.35;95906.09;5049338;28;20017;-70
2022/10/13 02:40:59;;;;;;;;;;;;;;;12.72;68.58;95902.44;5049000;28;20584;-70
2022/10/13 02:43:24;;;;;;;;;;;;;;;12.89;68.11;95888.47;5048939;28;20009;-70
2022/10/13 02:45:50;;;;;;;;;;;;;;;13.04;67.85;95903.38;5047879;28;20535;-70
2022/10/13 02:48:15;;;;;;;;;;;;;;;13.17;67.28;95900.69;5048234;28;20010;-70
2022/10/13 02:50:40;;;;;;;;;;;;;;;13.32;67.08;95896.91;5048357;28;20359;-70
2022/10/13 02:53:06;;;;;;;;;;;;;;;13.36;66.59;95900.56;5048586;28;20413;-70
2022/10/13 02:55:31;;;;;;;;;;;;;;;13.45;66.70;95895.25;5046642;28;20016;-70
2022/10/13 02:57:56;;;;;;;;;;;;;;;13.52;66.25;95895.63;5049527;28;20013;-70
2022/10/13 03:00:22;;;;;;;;;;;;;;;13.57;66.51;95900.09;5045650;28;20155;-70
2022/10/13 03:02:47;;;;;;;;;;;;;;;13.61;66.18;95885.00;5047880;28;20143;-71
2022/10/13 03:05:12;;;;;;;;;;;;;;;13.66;65.91;95887.53;5047172;28;20021;-70
2022/10/13 03:07:37;;;;;;;;;;;;;;;13.66;66.14;95884.88;5048640;28;20378;-70
2022/10/13 03:10:03;;;;;;;;;;;;;;;13.64;65.88;95874.47;5047137;28;20382;-70
2022/10/13 03:12:29;;;;;;;;;;;;;;;13.64;65.52;95879.03;5049608;28;20553;-72
2022/10/13 03:14:54;;;;;;;;;;;;;;;13.63;65.64;95882.81;5047347;28;20025;-71
2022/10/13 03:17:19;;;;;;;;;;;;;;;13.59;65.33;95884.50;5047399;28;20021;-70
2022/10/13 03:19:44;;;;;;;;;;;;;;;13.49;65.10;95872.97;5046881;28;20014;-71
2022/10/13 03:22:13;;;;;;;;;;;;;;;13.46;65.20;95870.94;5049468;28;20002;-70
2022/10/13 03:24:38;;;;;;;;;;;;;;;13.39;65.08;95872.44;5048493;28;20366;-70
2022/10/13 03:27:03;;;;;;;;;;;;;;;13.34;65.15;95867.97;5046903;28;20015;-70
2022/10/13 03:29:29;;;;;;;;;;;;;;;13.28;64.95;95874.53;5046460;28;20063;-70
2022/10/13 03:31:54;;;;;;;;;;;;;;;13.21;64.94;95872.31;5047636;28;20100;-70
2022/10/13 03:34:19;;;;;;;;;;;;;;;13.17;64.96;95863.28;5049051;28;20084;-70
2022/10/13 03:36:44;;;;;;;;;;;;;;;13.14;64.99;95874.56;5064042;28;20014;-70
2022/10/13 03:39:10;;;;;;;;;;;;;;;13.13;65.01;95878.31;5046944;28;20104;-70
2022/10/13 03:41:35;;;;;;;;;;;;;;;13.14;64.92;95882.56;5051770;28;22025;-70
2022/10/13 03:44:00;;;;;;;;;;;;;;;13.14;64.96;95881.78;5051420;28;20016;-69
2022/10/13 03:46:27;;;;;;;;;;;;;;;13.16;64.91;95882.28;5050888;28;20374;-71
2022/10/13 03:48:53;;;;;;;;;;;;;;;13.20;65.05;95891.25;5051301;28;20063;-70
2022/10/13 03:51:19;;;;;;;;;;;;;;;13.23;64.93;95888.03;5050493;28;20017;-71
2022/10/13 03:53:46;;;;;;;;;;;;;;;13.23;65.10;95893.38;5051691;28;20413;-70
2022/10/13 03:56:18;;;;;;;;;;;;;;;13.30;65.12;95888.38;5052527;28;20594;-70
2022/10/13 03:58:44;;;;;;;;;;;;;;;13.38;65.00;95898.34;5050890;28;20424;-70
2022/10/13 04:01:09;;;;;;;;;;;;;;;13.43;64.63;95900.91;5048552;28;20013;-70
2022/10/13 04:03:35;;;;;;;;;;;;;;;13.57;64.92;95897.41;5052430;28;20045;-71
2022/10/13 04:06:00;;;;;;;;;;;;;;;13.68;64.58;95893.38;5051204;28;20478;-70
2022/10/13 04:08:27;;;;;;;;;;;;;;;13.79;64.27;95894.72;5049782;28;20095;-70
2022/10/13 04:11:02;;;;;;;;;;;;;;;13.91;64.43;95900.28;5049857;28;20010;-70
2022/10/13 04:13:27;;;;;;;;;;;;;;;13.99;64.13;95896.88;5051405;28;20009;-71
2022/10/13 04:15:53;;;;;;;;;;;;;;;14.09;64.14;95898.50;5056192;28;20481;-70
2022/10/13 04:18:18;;;;;;;;;;;;;;;14.17;63.77;95892.38;5050438;28;20024;-70
2022/10/13 04:20:43;;;;;;;;;;;;;;;14.24;63.57;95895.44;5049996;28;20036;-70
2022/10/13 04:23:09;;;;;;;;;;;;;;;14.32;63.80;95900.00;5051449;28;20805;-71
2022/10/13 04:25:35;;;;;;;;;;;;;;;14.38;63.40;95899.88;5051210;28;20014;-70
2022/10/13 04:28:00;;;;;;;;;;;;;;;14.42;63.37;95890.91;5049589;28;20010;-72
2022/10/13 04:30:25;;;;;;;;;;;;;;;14.49;62.97;95895.88;5048632;28;20112;-70
2022/10/13 04:32:50;;;;;;;;;;;;;;;14.54;62.75;95901.88;5049057;28;20020;-70
2022/10/13 04:35:16;;;;;;;;;;;;;;;14.61;62.84;95892.59;5051871;28;20006;-70
2022/10/13 04:37:41;;;;;;;;;;;;;;;14.66;62.51;95890.56;5048877;28;20067;-70
2022/10/13 04:40:07;;;;;;;;;;;;;;;14.72;62.67;95883.16;5050406;28;20035;-70
2022/10/13 04:42:32;;;;;;;;;;;;;;;14.76;62.35;95884.91;5050807;28;20120;-71
2022/10/13 04:44:57;;;;;;;;;;;;;;;14.84;62.38;95888.69;5050577;28;20456;-71
2022/10/13 04:47:23;;;;;;;;;;;;;;;14.89;62.17;95885.06;5051480;28;20100;-71
2022/10/13 04:49:48;;;;;;;;;;;;;;;14.94;62.09;95885.72;5050207;28;20014;-71
2022/10/13 04:52:13;;;;;;;;;;;;;;;15.00;61.51;95884.50;5049331;28;20483;-71
2022/10/13 04:54:38;;;;;;;;;;;;;;;15.04;61.88;95888.09;5051366;28;20374;-70
2022/10/13 04:57:04;;;;;;;;;;;;;;;15.05;61.33;95876.28;5050109;28;20054;-70
2022/10/13 04:59:29;;;;;;;;;;;;;;;15.09;61.70;95871.06;5049743;28;20107;-70
2022/10/13 05:01:54;;;;;;;;;;;;;;;15.14;61.58;95880.84;5049251;28;20056;-71
2022/10/13 05:04:19;;;;;;;;;;;;;;;15.14;61.43;95870.94;5049969;28;20041;-70
2022/10/13 05:06:44;;;;;;;;;;;;;;;15.16;61.37;95873.31;5049514;28;20378;-70
2022/10/13 05:09:14;;;;;;;;;;;;;;;15.17;61.43;95867.63;5050634;28;20005;-69
2022/10/13 05:11:39;;;;;;;;;;;;;;;15.16;62.01;95868.75;5043776;28;20014;-69
2022/10/13 05:14:04;;;;;;;;;;;;;;;15.15;61.92;95874.38;5045635;28;20385;-69
2022/10/13 05:16:30;;;;;;;;;;;;;;;15.17;61.96;95872.19;5046304;28;20488;-69
2022/10/13 05:18:55;;;;;;;;;;;;;;;15.19;62.00;95869.97;5048915;28;20537;-69
2022/10/13 05:21:25;;;;;;;;;;;;;;;15.24;62.27;95869.81;5042815;28;20016;-69
2022/10/13 05:23:54;;;;;;;;;;;;;;;15.34;61.80;95880.22;5044842;28;20013;-69
2022/10/13 05:26:20;;;;;;;;;;;;;;;15.41;61.65;95877.09;5037817;28;20010;-70
2022/10/13 05:28:45;;;;;;;;;;;;;;;15.48;61.35;95877.41;5037262;28;20036;-69
2022/10/13 05:31:15;;;;;;;;;;;;;;;15.53;60.90;95869.97;5050798;28;20017;-71
2022/10/13 05:33:40;;;;;;;;;;;;;;;15.60;61.09;95870.28;5051109;28;20005;-71
2022/10/13 05:36:10;;;;;;;;;;;;;;;15.67;61.06;95874.41;5049976;28;20117;-72
2022/10/13 05:38:35;;;;;;;;;;;;;;;15.73;61.29;95873.94;5049052;28;20100;-71
2022/10/13 05:41:01;;;;;;;;;;;;;;;15.77;60.97;95874.88;5050800;28;20450;-70
2022/10/13 05:43:26;;;;;;;;;;;;;;;15.82;60.68;95871.22;5050284;28;20557;-72
2022/10/13 05:45:51;;;;;;;;;;;;;;;15.91;60.58;95876.56;5049845;28;20104;-72
2022/10/13 05:48:17;;;;;;;;;;;;;;;15.96;60.41;95871.81;5050347;28;20024;-71
2022/10/13 05:50:42;;;;;;;;;;;;;;;16.02;60.42;95867.06;5048666;28;20076;-71
2022/10/13 05:53:07;;;;;;;;;;;;;;;16.07;60.48;95869.56;5050677;28;20017;-79
2022/10/13 05:55:32;;;;;;;;;;;;;;;16.11;60.29;95868.59;5049994;28;20018;-71
2022/10/13 05:57:57;;;;;;;;;;;;;;;16.20;60.30;95875.84;5050790;28;20477;-69
2022/10/13 06:00:23;;;;;;;;;;;;;;;16.26;60.33;95869.19;5047174;28;20611;-70
2022/10/13 06:02:50;;;;;;;;;;;;;;;16.33;60.16;95872.19;5048325;28;20013;-71
2022/10/13 06:05:17;;;;;;;;;;;;;;;16.39;60.03;95876.25;5048968;28;20053;-72
2022/10/13 06:07:43;;;;;;;;;;;;;;;16.47;60.20;95875.41;5049997;28;20095;-72
2022/10/13 06:10:09;;;;;;;;;;;;;;;16.36;60.40;95871.50;5048082;28;20021;-69
2022/10/13 06:12:34;;;;;;;;;;;;;;;16.36;60.85;95871.50;5046719;28;20013;-69
2022/10/13 06:14:59;;;;;;;;;;;;;;;16.55;60.50;95873.81;5046967;28;20036;-72
2022/10/13 06:17:24;;;;;;;;;;;;;;;16.70;60.49;95875.16;5049159;28;20106;-72
2022/10/13 06:19:50;;;;;;;;;;;;;;;16.78;60.06;95875.13;5047149;28;20044;-69
2022/10/13 06:22:15;;;;;;;;;;;;;;;16.88;59.96;95868.59;5047733;28;20097;-72
2022/10/13 06:24:40;;;;;;;;;;;;;;;17.00;59.91;95871.38;5046426;28;20504;-70
2022/10/13 06:27:05;;;;;;;;;;;;;;;17.09;59.90;95872.06;5048112;28;20014;-71
2022/10/13 06:29:32;;;;;;;;;;;;;;;17.17;59.49;95870.44;5047264;28;20798;-71
2022/10/13 06:31:57;;;;;;;;;;;;;;;17.28;59.30;95871.63;5049445;28;20455;-71
2022/10/13 06:34:22;;;;;;;;;;;;;;;17.37;59.23;95876.94;5038725;28;20014;-72
2022/10/13 06:36:47;;;;;;;;;;;;;;;17.41;59.18;95872.47;5028444;28;20014;-70
2022/10/13 06:39:13;;;;;;;;;;;;;;;17.50;59.08;95872.38;5027906;28;20025;-70
2022/10/13 06:41:38;;;;;;;;;;;;;;;17.59;58.75;95875.78;5029927;28;20006;-69
2022/10/13 06:44:04;;;;;;;;;;;;;;;17.62;58.70;95875.13;5037979;28;20111;-70
2022/10/13 06:46:29;;;;;;;;;;;;;;;17.68;58.66;95876.50;5048266;28;20078;-68
2022/10/13 06:48:54;;;;;;;;;;;;;;;17.72;58.57;95868.56;5049771;28;20013;-68
2022/10/13 06:51:19;;;;;;;;;;;;;;;17.78;58.71;95862.66;5048002;28;20429;-68
2022/10/13 06:53:45;;;;;;;;;;;;;;;17.88;58.68;95873.00;5048173;28;20371;-68
2022/10/13 06:56:10;;;;;;;;;;;;;;;17.96;58.69;95873.25;5048139;28;20017;-68
2022/10/13 06:58:36;;;;;;;;;;;;;;;18.03;58.63;95868.91;5046431;28;20465;-68
2022/10/13 07:01:01;;;;;;;;;;;;;;;18.11;58.44;95869.91;5045898;28;20017;-70
2022/10/13 07:03:26;;;;;;;;;;;;;;;18.23;58.18;95869.94;5048070;28;20470;-70
2022/10/13 07:05:52;;;;;;;;;;;;;;;18.27;58.02;95873.56;5047160;28;20024;-69
2022/10/13 07:08:17;;;;;;;;;;;;;;;18.33;57.89;95871.41;5049254;28;20005;-71
2022/10/13 07:10:43;;;;;;;;;;;;;;;18.38;58.11;95874.69;5048139;28;20462;-69
2022/10/13 07:13:08;;;;;;;;;;;;;;;18.47;57.85;95876.47;5049608;28;20009;-69
2022/10/13 07:15:36;;;;;;;;;;;;;;;18.51;57.83;95880.06;5048438;28;20014;-69
2022/10/13 07:18:01;;;;;;;;;;;;;;;18.34;57.76;95838.75;5052958;28;20048;-69
2022/10/13 07:20:26;;;;;;;;;;;;;;;18.63;57.53;95874.66;5051830;28;20014;-69
2022/10/13 07:22:52;;;;;;;;;;;;;;;18.66;57.81;95871.31;5053078;28;20509;-70
2022/10/13 07:25:17;;;;;;;;;;;;;;;18.77;57.41;95853.56;5050296;28;20064;-70
2022/10/13 07:27:43;;;;;;;;;;;;;;;18.83;57.30;95859.53;5049995;28;20478;-70
2022/10/13 07:30:08;;;;;;;;;;;;;;;18.88;56.95;95865.47;5051368;28;20021;-71
2022/10/13 07:32:34;;;;;;;;;;;;;;;18.92;57.15;95863.66;5052308;28;20013;-73
2022/10/13 07:34:59;;;;;;;;;;;;;;;18.99;56.98;95867.69;5052882;28;20056;-71
2022/10/13 07:37:25;;;;;;;;;;;;;;;19.05;56.86;95867.16;5051225;28;20013;-71
2022/10/13 07:39:50;;;;;;;;;;;;;;;19.14;56.86;95873.19;5049255;28;20068;-71
2022/10/13 07:42:16;;;;;;;;;;;;;;;19.18;56.38;95868.66;5052136;28;20100;-71
2022/10/13 07:44:41;;;;;;;;;;;;;;;19.22;56.14;95855.28;5052961;28;20033;-71
2022/10/13 07:47:06;;;;;;;;;;;;;;;19.27;56.26;95860.44;5053028;28;20013;-71
2022/10/13 07:49:32;;;;;;;;;;;;;;;19.22;56.21;95858.78;5052226;28;20070;-71
2022/10/13 07:51:57;;;;;;;;;;;;;;;19.30;56.47;95865.19;5052167;28;20029;-70
2022/10/13 07:54:23;;;;;;;;;;;;;;;19.41;56.13;95857.38;5052980;28;20006;-71
2022/10/13 07:56:52;;;;;;;;;;;;;;;19.43;56.27;95863.22;5051791;28;20021;-71
2022/10/13 07:59:17;;;;;;;;;;;;;;;19.50;56.00;95855.34;5051110;28;20017;-71
2022/10/13 08:01:42;;;;;;;;;;;;;;;19.56;55.87;95853.94;5051296;28;20063;-71
2022/10/13 08:04:08;;;;;;;;;;;;;;;19.64;55.35;95858.44;5051271;28;20501;-74
2022/10/13 08:06:33;;;;;;;;;;;;;;;19.73;55.10;95848.28;5051245;28;20116;-71
2022/10/13 08:08:59;;;;;;;;;;;;;;;19.82;55.04;95850.03;5051355;28;20064;-71
2022/10/13 08:11:24;;;;;;;;;;;;;;;19.88;54.98;95840.56;5050565;28;20014;-71
2022/10/13 08:13:50;;;;;;;;;;;;;;;19.94;55.04;95839.16;5051335;28;20063;-71
2022/10/13 08:16:16;;;;;;;;;;;;;;;20.03;54.66;95849.81;5051031;28;20020;-71
2022/10/13 08:18:41;;;;;;;;;;;;;;;20.06;54.22;95847.19;5050334;28;20560;-72
2022/10/13 08:21:08;;;;;;;;;;;;;;;20.10;54.03;95848.06;5043279;28;20100;-71
2022/10/13 08:23:33;;;;;;;;;;;;;;;20.20;54.15;95847.53;5044397;28;20360;-71
2022/10/13 08:25:58;;;;;;;;;;;;;;;20.24;53.84;95851.13;5049948;28;20070;-72
2022/10/13 08:28:25;;;;;;;;;;;;;;;20.24;53.29;95853.81;5051753;28;20013;-71
2022/10/13 08:30:52;;;;;;;;;;;;;;;19.99;53.61;95864.00;5052293;28;20382;-71
2022/10/13 08:33:17;;;;;;;;;;;;;;;20.14;53.86;95867.84;5051679;28;20010;-71
2022/10/13 08:35:42;;;;;;;;;;;;;;;19.95;53.39;95862.31;5051944;28;20002;-72
2022/10/13 08:38:08;;;;;;;;;;;;;;;19.99;53.60;95858.59;5067370;28;20018;-72
2022/10/13 08:40:34;;;;;;;;;;;;;;;20.22;53.76;95856.09;5051339;28;20037;-73
2022/10/13 08:42:59;;;;;;;;;;;;;;;20.40;53.00;95855.75;5049526;28;20032;-72
2022/10/13 08:45:26;;;;;;;;;;;;;;;20.57;52.94;95862.72;5050065;28;20010;-73
2022/10/13 08:47:53;;;;;;;;;;;;;;;20.70;52.60;95858.81;5051857;28;20198;-73
2022/10/13 08:50:21;;;;;;;;;;;;;;;20.88;52.06;95859.19;5051371;28;20002;-72
2022/10/13 08:52:48;;;;;;;;;;;;;;;21.16;51.42;95859.81;5049817;28;20072;-72
2022/10/13 08:55:20;;;;;;;;;;;;;;;21.40;50.90;95849.91;5049287;28;20385;-73
2022/10/13 08:57:45;;;;;;;;;;;;;;;21.59;50.44;95849.88;5049429;28;20014;-72
2022/10/13 09:00:11;;;;;;;;;;;;;;;21.76;49.42;95841.34;5051172;28;20374;-73
2022/10/13 09:02:36;;;;;;;;;;;;;;;21.89;48.70;95849.28;5051469;28;20052;-72
2022/10/13 09:05:03;;;;;;;;;;;;;;;21.97;48.81;95846.38;5049814;28;20048;-73
2022/10/13 09:07:31;;;;;;;;;;;;;;;22.08;48.21;95843.84;5049818;28;20536;-72
2022/10/13 09:09:56;;;;;;;;;;;;;;;22.17;47.67;95847.13;5050481;28;20092;-72
2022/10/13 09:12:25;;;;;;;;;;;;;;;22.21;48.05;95847.94;5049610;28;20454;-72
2022/10/13 09:15:00;;;;;;;;;;;;;;;22.25;48.16;95848.03;5048596;28;20020;-72
2022/10/13 09:17:26;;;;;;;;;;;;;;;22.22;48.26;95843.34;5050587;28;20005;-73
2022/10/13 09:20:07;;;;;;;;;;;;;;;22.42;48.03;95846.75;5048856;28;20070;-71
2022/10/13 09:22:33;;;;;;;;;;;;;;;22.81;46.98;95841.94;5050138;28;20389;-72
2022/10/13 09:25:19;;;;;;;;;;;;;;;23.11;46.02;95833.84;5051264;28;20024;-73
2022/10/13 09:27:46;;;;;;;;;;;;;;;23.28;45.73;95830.56;5048598;28;20595;-72
2022/10/13 09:30:24;;;;;;;;;;;;;;;23.31;44.52;95827.13;5050320;28;20052;-71
2022/10/13 09:32:49;;;;;;;;;;;;;;;23.35;44.30;95821.75;5051147;28;20006;-75
2022/10/13 09:35:21;;;;;;;;;;;;;;;23.19;44.56;95829.31;5049781;28;20021;-71
2022/10/13 09:38:00;;;;;;;;;;;;;;;22.89;44.73;95827.38;5049566;28;20040;-74
2022/10/13 09:40:29;;;;;;;;;;;;;;;22.88;44.97;95830.38;5050696;28;20393;-72
2022/10/13 09:42:55;;;;;;;;;;;;;;;22.93;44.49;95827.41;5048549;28;20018;-73
2022/10/13 09:45:22;;;;;;;;;;;;;;;23.02;44.55;95825.97;5050843;28;20056;-72
2022/10/13 09:47:52;;;;;;;;;;;;;;;23.14;44.31;95825.00;5050807;28;20006;-73
2022/10/13 09:50:18;;;;;;;;;;;;;;;23.40;44.05;95815.22;5048651;28;20470;-75
2022/10/13 09:52:44;;;;;;;;;;;;;;;23.60;43.40;95819.34;5050150;28;20474;-72
2022/10/13 09:55:28;;;;;;;;;;;;;;;23.34;43.16;95826.41;5050477;28;20761;-70
2022/10/13 09:57:55;;;;;;;;;;;;;;;23.23;44.32;95817.34;5049567;28;20048;-71
2022/10/13 10:00:25;;;;;;;;;;;;;;;23.19;43.44;95813.81;5049735;28;20010;-70
2022/10/13 10:03:14;;;;;;;;;;;;;;;23.26;43.51;95813.88;5048249;28;20535;-70
2022/10/13 10:05:45;;;;;;;;;;;;;;;23.35;42.99;95810.91;5050668;28;20029;-76
2022/10/13 10:08:17;;;;;;;;;;;;;;;23.50;42.76;95815.34;5049030;28;20101;-70
2022/10/13 10:10:42;;;;;;;;;;;;;;;23.68;42.74;95821.00;5047841;28;20018;-71
2022/10/13 10:13:12;;;;;;;;;;;;;;;23.72;42.98;95821.81;5048323;28;20528;-74
2022/10/13 10:15:56;;;;;;;;;;;;;;;22.80;42.40;95824.88;5050460;28;20006;-73
2022/10/13 10:18:29;;;;;;;;;;;;;;;22.48;42.80;95824.41;5049982;28;20056;-69
2022/10/13 10:20:58;;;;;;;;;;;;;;;21.88;44.11;95824.13;5048175;28;20025;-70
2022/10/13 10:23:42;;;;;;;;;;;;;;;21.02;44.35;95822.44;5049416;28;20093;-71
2022/10/13 10:26:12;;;;;;;;;;;;;;;21.62;45.11;95829.47;5050144;28;20051;-73
2022/10/13 10:28:37;;;;;;;;;;;;;;;22.83;43.29;95815.25;5049247;28;20187;-76
2022/10/13 10:31:20;;;;;;;;;;;;;;;23.37;43.12;95808.59;5050544;28;20796;-76
2022/10/13 10:33:49;;;;;;;;;;;;;;;23.77;42.34;95807.13;5049293;28;20014;-72
2022/10/13 10:36:18;;;;;;;;;;;;;;;24.16;41.83;95801.25;5049936;28;20006;-72
2022/10/13 10:38:51;;;;;;;;;;;;;;;24.24;40.49;95800.19;5048242;28;20059;-74
2022/10/13 10:41:42;;;;;;;;;;;;;;;24.36;40.78;95803.44;5048810;28;20014;-73
2022/10/13 10:44:25;;;;;;;;;;;;;;;23.97;40.17;95799.56;5049072;28;20485;-72
2022/10/13 10:46:53;;;;;;;;;;;;;;;24.11;39.97;95791.53;5049806;28;20010;-73
2022/10/13 10:49:22;;;;;;;;;;;;;;;24.23;39.89;95791.25;5050165;28;20010;-74
2022/10/13 10:51:48;;;;;;;;;;;;;;;24.24;39.47;95787.38;5053044;28;20045;-74
2022/10/13 10:54:19;;;;;;;;;;;;;;;24.36;39.23;95787.13;5052863;28;20095;-74
2022/10/13 10:57:05;;;;;;;;;;;;;;;24.41;39.39;95780.53;5052425;28;20470;-74
2022/10/13 10:59:50;;;;;;;;;;;;;;;24.13;38.83;95781.06;5052686;28;20019;-74
2022/10/13 11:02:38;;;;;;;;;;;;;;;24.15;39.73;95767.88;5054668;28;20006;-73
2022/10/13 11:05:04;;;;;;;;;;;;;;;24.31;39.98;95773.84;5054300;28;20013;-71
2022/10/13 11:07:29;;;;;;;;;;;;;;;24.41;39.74;95772.38;5052438;28;20528;-71
2022/10/13 11:09:56;;;;;;;;;;;;;;;24.46;39.13;95765.78;5053323;28;20393;-72
2022/10/13 11:12:22;;;;;;;;;;;;;;;24.11;39.57;95765.13;5051234;28;20014;-72
2022/10/13 11:14:47;;;;;;;;;;;;;;;24.21;39.75;95749.28;5052360;28;20009;-73
2022/10/13 11:17:15;;;;;;;;;;;;;;;24.35;42.96;95744.75;5053442;28;20100;-72
2022/10/13 11:19:41;;;;;;;;;;;;;;;24.36;41.55;95743.63;5051120;28;20498;-70
2022/10/13 11:22:06;;;;;;;;;;;;;;;24.46;40.50;95738.59;5051398;28;20013;-71
2022/10/13 11:24:40;;;;;;;;;;;;;;;24.58;40.23;95741.03;5052270;28;20014;-71
2022/10/13 11:27:15;;;;;;;;;;;;;;;24.54;40.15;95741.00;5052043;28;20009;-71
2022/10/13 11:29:40;;;;;;;;;;;;;;;23.42;40.37;95739.59;5051276;28;20021;-71
2022/10/13 11:32:26;;;;;;;;;;;;;;;23.45;41.14;95738.88;5050980;28;20016;-71
2022/10/13 11:35:13;;;;;;;;;;;;;;;23.55;40.97;95735.50;5052994;28;20010;-70
2022/10/13 11:37:47;;;;;;;;;;;;;;;23.81;41.52;95729.16;5051808;28;20429;-73
2022/10/13 11:40:36;;;;;;;;;;;;;;;24.09;41.00;95732.09;5051809;28;20049;-72
2022/10/13 11:43:23;;;;;;;;;;;;;;;23.94;40.01;95727.72;5049274;28;20013;-73
2022/10/13 11:45:54;;;;;;;;;;;;;;;24.10;40.03;95730.16;5051248;28;20014;-73
2022/10/13 11:48:29;;;;;;;;;;;;;;;24.21;39.54;95725.59;5051508;28;20017;-73
2022/10/13 11:50:57;;;;;;;;;;;;;;;24.33;39.94;95722.56;5052856;28;20005;-72
2022/10/13 11:53:26;;;;;;;;;;;;;;;23.52;40.85;95723.44;5050951;28;20014;-71
2022/10/13 11:55:53;;;;;;;;;;;;;;;23.97;40.75;95720.75;5051914;28;20489;-71
2022/10/13 11:58:19;;;;;;;;;;;;;;;24.20;40.48;95717.81;5050214;28;20072;-72
2022/10/13 12:00:50;;;;;;;;;;;;;;;24.32;39.99;95709.38;5051592;28;20005;-72
2022/10/13 12:03:26;;;;;;;;;;;;;;;24.26;39.44;95706.22;5051201;28;20013;-72
2022/10/13 12:05:52;;;;;;;;;;;;;;;23.84;40.04;95698.50;5052636;28;20013;-72
2022/10/13 12:08:18;;;;;;;;;;;;;;;23.96;39.87;95697.47;5050429;28;20028;-72
2022/10/13 12:10:43;;;;;;;;;;;;;;;24.13;40.20;95686.72;5051415;28;20010;-73
2022/10/13 12:13:19;;;;;;;;;;;;;;;24.17;40.31;95684.03;5051770;28;20062;-71
2022/10/13 12:15:45;;;;;;;;;;;;;;;24.21;40.59;95682.13;5051008;28;20052;-72
2022/10/13 12:18:19;;;;;;;;;;;;;;;24.15;40.07;95682.81;5052262;28;20057;-71
2022/10/13 12:20:50;;;;;;;;;;;;;;;24.09;40.02;95691.34;5050454;28;20018;-72
2022/10/13 12:23:16;;;;;;;;;;;;;;;23.62;40.49;95681.22;5051743;28;20013;-71
2022/10/13 12:25:45;;;;;;;;;;;;;;;23.19;41.34;95677.34;5052166;28;20012;-71
2022/10/13 12:28:16;;;;;;;;;;;;;;;23.52;40.83;95673.78;5049729;28;20509;-71
2022/10/13 12:30:41;;;;;;;;;;;;;;;23.69;41.04;95683.25;5051933;28;20017;-71
2022/10/13 12:33:42;;;;;;;;;;;;;;;23.98;40.87;95681.56;5051237;28;20010;-71
2022/10/13 12:36:11;;;;;;;;;;;;;;;24.27;40.53;95683.31;5013143;28;20097;-71
2022/10/13 12:38:37;;;;;;;;;;;;;;;24.44;40.08;95683.81;5047301;28;20111;-71
2022/10/13 12:41:02;;;;;;;;;;;;;;;24.57;39.37;95685.84;5051193;28;20052;-71
2022/10/13 12:43:28;;;;;;;;;;;;;;;24.64;39.65;95677.72;5049488;28;20014;-72
2022/10/13 12:45:53;;;;;;;;;;;;;;;24.02;40.00;95675.00;5050694;28;20016;-72
2022/10/13 12:48:29;;;;;;;;;;;;;;;24.02;40.53;95674.22;5050277;28;20020;-69
2022/10/13 12:50:54;;;;;;;;;;;;;;;24.34;40.56;95664.31;5050912;28;20100;-70
2022/10/13 12:53:25;;;;;;;;;;;;;;;24.51;39.99;95673.75;5051771;28;20437;-70